createdAt,value
2022-11-02T00:00:45.647Z,15.20
2022-11-02T00:03:13.323Z,13.65
2022-11-02T00:05:40.955Z,9.55
2022-11-02T00:08:08.589Z,11.98
2022-11-02T00:10:36.206Z,10.02
2022-11-02T00:13:04.231Z,18.65
2022-11-02T00:15:34.546Z,18.35
2022-11-02T00:18:09.609Z,14.60
2022-11-02T00:20:41.519Z,14.90
2022-11-02T00:23:12.295Z,7.60
2022-11-02T00:25:44.307Z,13.05
2022-11-02T00:28:12.700Z,9.88
2022-11-02T00:30:40.642Z,14.98
2022-11-02T00:33:08.244Z,14.60
2022-11-02T00:35:36.612Z,12.77
2022-11-02T00:38:05.824Z,5.75
2022-11-02T00:40:33.656Z,6.35
2022-11-02T00:43:01.391Z,5.60
2022-11-02T00:45:28.990Z,3.55
2022-11-02T00:47:56.553Z,8.82
2022-11-02T00:50:24.632Z,7.65
2022-11-02T00:52:52.190Z,16.10
2022-11-02T00:55:19.833Z,4.03
2022-11-02T00:57:47.416Z,12.38
2022-11-02T01:00:15.535Z,8.40
2022-11-02T01:02:43.565Z,9.27
2022-11-02T01:05:11.773Z,12.00
2022-11-02T01:07:39.408Z,9.77
2022-11-02T01:10:08.999Z,10.98
2022-11-02T01:12:40.861Z,10.93
2022-11-02T01:15:11.483Z,7.68
2022-11-02T01:17:39.327Z,9.90
2022-11-02T01:20:07.841Z,17.10
2022-11-02T01:22:35.853Z,6.07
2022-11-02T01:25:04.289Z,10.02
2022-11-02T01:27:32.162Z,13.85
2022-11-02T01:29:59.784Z,13.82
2022-11-02T01:32:30.666Z,5.68
2022-11-02T01:34:58.319Z,10.60
2022-11-02T01:37:25.927Z,13.60
2022-11-02T01:39:53.495Z,16.63
2022-11-02T01:42:24.234Z,13.90
2022-11-02T01:47:37.904Z,11.63
2022-11-02T01:50:11.843Z,6.07
2022-11-02T01:52:40.339Z,12.65
2022-11-02T01:55:16.452Z,14.45
2022-11-02T01:57:53.718Z,6.45
2022-11-02T02:00:21.821Z,10.13
2022-11-02T02:03:10.706Z,6.70
2022-11-02T02:05:46.654Z,9.85
2022-11-02T02:08:21.923Z,13.35
2022-11-02T02:10:49.559Z,6.50
2022-11-02T02:13:18.820Z,18.23
2022-11-02T02:15:56.611Z,7.70
2022-11-02T02:18:43.072Z,10.75
2022-11-02T02:21:29.232Z,16.17
2022-11-02T02:24:07.067Z,13.38
2022-11-02T02:26:56.596Z,10.50
2022-11-02T02:29:53.515Z,6.78
2022-11-02T02:32:39.247Z,6.40
2022-11-02T02:35:40.426Z,13.70
2022-11-02T02:38:29.660Z,14.45
2022-11-02T02:41:14.441Z,15.25
2022-11-02T02:43:54.722Z,15.57
2022-11-02T02:46:26.050Z,14.90
2022-11-02T02:48:56.843Z,23.85
2022-11-02T02:51:31.195Z,11.18
2022-11-02T02:54:23.584Z,10.85
2022-11-02T02:56:54.889Z,15.90
2022-11-02T02:59:27.550Z,13.50
2022-11-02T03:01:58.246Z,10.35
2022-11-02T03:04:26.444Z,12.05
2022-11-02T03:06:59.269Z,14.10
2022-11-02T03:10:11.508Z,6.18
2022-11-02T03:12:52.955Z,17.45
2022-11-02T03:15:37.446Z,10.40
2022-11-02T03:18:49.341Z,16.48
2022-11-02T03:21:27.758Z,10.80
2022-11-02T03:24:18.611Z,6.78
2022-11-02T03:26:59.464Z,12.75
2022-11-02T03:30:04.358Z,10.40
2022-11-02T03:33:06.647Z,13.38
2022-11-02T03:35:46.175Z,8.38
2022-11-02T03:38:21.085Z,19.90
2022-11-02T03:40:52.660Z,17.25
2022-11-02T03:43:21.839Z,18.17
2022-11-02T03:45:57.991Z,13.45
2022-11-02T03:48:32.176Z,13.68
2022-11-02T03:51:06.929Z,15.75
2022-11-02T03:53:44.715Z,13.93
2022-11-02T03:56:19.251Z,14.55
2022-11-02T03:58:47.300Z,17.58
2022-11-02T04:01:16.400Z,17.10
2022-11-02T04:03:46.402Z,13.60
2022-11-02T04:06:15.120Z,12.73
2022-11-02T04:08:46.018Z,14.30
2022-11-02T04:11:33.502Z,14.45
2022-11-02T04:14:27.794Z,24.48
2022-11-02T04:17:14.971Z,19.27
2022-11-02T04:19:49.897Z,21.42
2022-11-02T04:22:37.936Z,18.73
2022-11-02T04:25:18.869Z,19.35
2022-11-02T04:28:15.697Z,22.83
2022-11-02T04:30:54.676Z,11.98
2022-11-02T04:33:34.771Z,12.65
2022-11-02T04:36:11.485Z,15.00
2022-11-02T04:38:40.895Z,13.80
2022-11-02T04:41:39.948Z,20.83
2022-11-02T04:44:14.512Z,9.95
2022-11-02T04:46:45.303Z,14.25
2022-11-02T04:49:14.729Z,9.93
2022-11-02T04:51:45.832Z,13.70
2022-11-02T04:54:18.786Z,13.57
2022-11-02T04:56:50.319Z,16.80
2022-11-02T04:59:19.652Z,12.43
2022-11-02T05:01:48.153Z,13.95
2022-11-02T05:04:17.491Z,19.42
2022-11-02T05:06:46.262Z,21.75
2022-11-02T05:09:14.036Z,19.17
2022-11-02T05:11:44.944Z,19.25
2022-11-02T05:14:12.637Z,18.40
2022-11-02T05:16:40.239Z,15.73
2022-11-02T05:19:11.053Z,23.37
2022-11-02T05:21:40.175Z,12.55
2022-11-02T05:24:08.596Z,18.00
2022-11-02T05:26:37.037Z,14.63
2022-11-02T05:29:05.799Z,12.25
2022-11-02T05:31:34.661Z,14.00
2022-11-02T05:34:02.566Z,12.30
2022-11-02T05:36:30.355Z,8.07
2022-11-02T05:38:58.420Z,12.88
2022-11-02T05:41:27.157Z,12.73
2022-11-02T05:43:56.605Z,21.63
2022-11-02T05:46:26.318Z,21.17
2022-11-02T05:48:53.872Z,21.67
2022-11-02T05:51:21.429Z,15.50
2022-11-02T05:53:49.159Z,15.25
2022-11-02T05:56:22.135Z,12.90
2022-11-02T05:58:54.779Z,18.20
2022-11-02T06:01:22.718Z,21.58
2022-11-02T06:03:53.391Z,22.30
2022-11-02T06:06:21.524Z,12.68
2022-11-02T06:08:49.133Z,13.30
2022-11-02T06:11:16.825Z,13.15
2022-11-02T06:13:44.541Z,11.32
2022-11-02T06:16:12.577Z,19.70
2022-11-02T06:18:40.405Z,13.70
2022-11-02T06:21:08.489Z,20.77
2022-11-02T06:23:36.711Z,17.77
2022-11-02T06:26:04.787Z,11.23
2022-11-02T06:28:32.558Z,9.48
2022-11-02T06:31:00.413Z,17.33
2022-11-02T06:33:28.558Z,18.00
2022-11-02T06:35:56.233Z,12.93
2022-11-02T06:38:24.220Z,19.13
2022-11-02T06:40:56.868Z,12.27
2022-11-02T06:43:25.383Z,20.63
2022-11-02T06:45:59.383Z,18.50
2022-11-02T06:48:33.331Z,20.83
2022-11-02T06:51:03.488Z,19.92
2022-11-02T06:53:31.757Z,13.13
2022-11-02T06:56:00.449Z,16.35
2022-11-02T06:58:28.574Z,11.95
2022-11-02T07:01:06.874Z,19.50
2022-11-02T07:03:34.794Z,15.43
2022-11-02T07:06:02.948Z,12.93
2022-11-02T07:08:30.612Z,14.52
2022-11-02T07:10:58.282Z,23.17
2022-11-02T07:13:25.901Z,14.80
2022-11-02T07:15:54.995Z,24.52
2022-11-02T07:18:24.038Z,18.48
2022-11-02T07:20:51.701Z,16.95
2022-11-02T07:23:23.599Z,15.18
2022-11-02T07:25:51.351Z,10.70
2022-11-02T07:28:19.170Z,16.60
2022-11-02T07:30:47.166Z,18.80
2022-11-02T07:33:14.742Z,19.73
2022-11-02T07:35:42.490Z,19.65
2022-11-02T07:38:10.975Z,17.92
2022-11-02T07:40:39.032Z,18.42
2022-11-02T07:43:07.812Z,22.15
2022-11-02T07:46:14.407Z,13.15
2022-11-02T07:48:41.967Z,16.98
2022-11-02T07:51:11.267Z,15.27
2022-11-02T07:53:39.432Z,17.83
2022-11-02T07:56:07.771Z,16.88
2022-11-02T07:58:35.317Z,16.08
2022-11-02T08:01:03.008Z,14.45
2022-11-02T08:03:30.753Z,25.30
2022-11-02T08:06:02.888Z,17.48
2022-11-02T08:08:30.545Z,18.75
2022-11-02T08:11:07.167Z,19.67
2022-11-02T08:13:36.803Z,17.70
2022-11-02T08:16:04.807Z,18.92
2022-11-02T08:18:32.955Z,13.10
2022-11-02T08:21:00.578Z,12.80
2022-11-02T08:23:28.221Z,15.63
2022-11-02T08:25:59.295Z,18.38
2022-11-02T08:28:31.695Z,11.52
2022-11-02T08:30:59.728Z,15.95
2022-11-02T08:33:27.310Z,13.68
2022-11-02T08:35:54.859Z,18.02
2022-11-02T08:38:22.782Z,16.67
2022-11-02T08:40:50.396Z,18.33
2022-11-02T08:43:17.936Z,19.95
2022-11-02T08:48:34.382Z,17.00
2022-11-02T08:51:02.818Z,16.73
2022-11-02T08:53:30.367Z,11.82
2022-11-02T08:55:59.155Z,18.00
2022-11-02T08:58:26.778Z,24.77
2022-11-02T09:00:54.926Z,13.15
2022-11-02T09:03:26.846Z,18.40
2022-11-02T09:06:00.862Z,18.88
2022-11-02T09:08:29.354Z,17.02
2022-11-02T09:11:02.703Z,14.85
2022-11-02T09:13:30.702Z,16.77
2022-11-02T09:15:59.780Z,18.25
2022-11-02T09:18:27.791Z,20.63
2022-11-02T09:20:55.491Z,16.75
2022-11-02T09:23:23.627Z,17.02
2022-11-02T09:25:51.442Z,18.70
2022-11-02T09:28:19.401Z,22.60
2022-11-02T09:30:47.116Z,12.93
2022-11-02T09:33:14.989Z,16.95
2022-11-02T09:35:45.326Z,22.52
2022-11-02T09:38:13.608Z,15.95
2022-11-02T09:41:09.624Z,16.42
2022-11-02T09:44:10.645Z,17.27
2022-11-02T09:46:43.756Z,23.80
2022-11-02T09:49:20.071Z,18.95
2022-11-02T09:51:51.827Z,18.48
2022-11-02T09:54:33.760Z,16.83
2022-11-02T09:57:06.981Z,19.70
2022-11-02T09:59:34.965Z,18.73
2022-11-02T10:02:11.359Z,21.27
2022-11-02T10:05:03.014Z,13.48
2022-11-02T10:07:33.687Z,17.38
2022-11-02T10:12:56.096Z,21.58
2022-11-02T10:15:55.261Z,14.35
2022-11-02T10:18:28.405Z,15.77
2022-11-02T10:21:06.420Z,16.25
2022-11-02T10:23:41.317Z,19.67
2022-11-02T10:26:19.636Z,20.60
2022-11-02T10:28:50.676Z,24.98
2022-11-02T10:31:38.491Z,25.08
2022-11-02T10:34:11.824Z,19.27
2022-11-02T10:36:45.977Z,16.10
2022-11-02T10:39:22.629Z,20.92
2022-11-02T10:42:19.600Z,14.32
2022-11-02T10:44:59.023Z,17.92
2022-11-02T10:47:30.557Z,17.02
2022-11-02T10:50:12.444Z,15.32
2022-11-02T10:52:43.755Z,18.63
2022-11-02T10:55:21.446Z,20.33
2022-11-02T10:57:49.899Z,16.05
2022-11-02T11:00:34.102Z,18.45
2022-11-02T11:03:12.890Z,20.38
2022-11-02T11:05:59.223Z,15.70
2022-11-02T11:08:41.544Z,14.43
2022-11-02T11:11:17.989Z,17.23
2022-11-02T11:19:52.041Z,12.50
2022-11-02T11:25:14.709Z,14.98
2022-11-02T11:27:57.071Z,19.92
2022-11-02T11:30:58.940Z,18.67
2022-11-02T11:33:24.606Z,15.07
2022-11-02T11:35:52.386Z,16.80
2022-11-02T11:38:22.649Z,20.48
2022-11-02T11:40:54.120Z,21.23
2022-11-02T11:43:35.109Z,19.52
2022-11-02T11:46:07.326Z,18.63
2022-11-02T11:48:37.829Z,14.98
2022-11-02T11:51:29.948Z,16.60
2022-11-02T11:54:26.945Z,18.50
2022-11-02T11:56:57.102Z,14.32
2022-11-02T11:59:28.726Z,17.75
2022-11-02T12:01:59.557Z,18.23
2022-11-02T12:04:37.242Z,15.75
2022-11-02T12:07:38.173Z,17.88
2022-11-02T12:10:11.931Z,14.82
2022-11-02T12:12:53.393Z,16.30
2022-11-02T12:15:59.806Z,19.42
2022-11-02T12:18:47.116Z,17.92
2022-11-02T12:21:33.562Z,14.35
2022-11-02T12:24:28.994Z,16.52
2022-11-02T12:27:04.742Z,15.93
2022-11-02T12:29:46.020Z,17.75
2022-11-02T12:32:38.104Z,14.52
2022-11-02T12:38:36.406Z,13.95
2022-11-02T12:41:07.318Z,25.23
2022-11-02T12:43:49.327Z,14.82
2022-11-02T12:46:38.301Z,17.90
2022-11-02T12:49:26.496Z,20.77
2022-11-02T12:52:05.993Z,18.38
2022-11-02T12:54:52.253Z,17.25
2022-11-02T12:57:23.586Z,15.30
2022-11-02T12:59:55.076Z,18.17
2022-11-02T13:02:31.695Z,16.38
2022-11-02T13:05:18.892Z,21.70
2022-11-02T13:08:11.930Z,26.55
2022-11-02T13:10:50.690Z,24.67
2022-11-02T13:13:32.497Z,23.65
2022-11-02T13:16:01.635Z,21.45
2022-11-02T13:18:41.217Z,24.35
2022-11-02T13:21:11.938Z,19.42
2022-11-02T13:23:45.696Z,24.23
2022-11-02T13:26:34.254Z,22.20
2022-11-02T13:29:26.175Z,14.85
2022-11-02T13:32:10.875Z,18.95
2022-11-02T13:34:42.700Z,19.25
2022-11-02T13:37:35.764Z,21.52
2022-11-02T13:40:16.946Z,22.10
2022-11-02T13:43:08.973Z,18.85
2022-11-02T13:45:52.005Z,24.60
2022-11-02T13:48:25.388Z,21.80
2022-11-02T13:50:58.184Z,14.75
2022-11-02T13:53:39.038Z,32.30
2022-11-02T13:56:13.279Z,23.00
2022-11-02T13:58:47.712Z,26.98
2022-11-02T14:01:18.951Z,23.60
2022-11-02T14:03:50.945Z,21.33
2022-11-02T14:06:20.156Z,29.83
2022-11-02T14:08:55.594Z,24.60
2022-11-02T14:11:33.828Z,27.55
2022-11-02T14:14:01.479Z,21.90
2022-11-02T14:16:59.356Z,23.95
2022-11-02T14:19:32.275Z,18.50
2022-11-02T14:21:59.826Z,23.45
2022-11-02T14:24:33.735Z,26.13
2022-11-02T14:27:19.063Z,19.80
2022-11-02T14:29:46.703Z,26.60
2022-11-02T14:32:17.333Z,17.63
2022-11-02T14:37:27.252Z,29.30
2022-11-02T14:40:28.117Z,28.35
2022-11-02T14:45:31.022Z,26.13
2022-11-02T14:48:03.490Z,26.80
2022-11-02T14:50:31.992Z,14.32
2022-11-02T14:53:08.135Z,19.90
2022-11-02T14:55:38.349Z,13.85
2022-11-02T14:58:10.809Z,19.85
2022-11-02T15:01:01.355Z,26.42
2022-11-02T15:03:29.027Z,26.45
2022-11-02T15:06:07.957Z,28.58
2022-11-02T15:08:57.054Z,28.23
2022-11-02T15:11:46.720Z,21.85
2022-11-02T15:14:50.691Z,23.63
2022-11-02T15:17:18.222Z,26.65
2022-11-02T15:19:49.015Z,24.23
2022-11-02T15:22:31.947Z,28.15
2022-11-02T15:25:26.437Z,13.73
2022-11-02T15:27:57.690Z,21.10
2022-11-02T15:30:28.583Z,30.10
2022-11-02T15:33:03.965Z,22.08
2022-11-02T15:35:36.036Z,21.25
2022-11-02T15:38:27.993Z,21.60
2022-11-02T15:41:23.567Z,23.67
2022-11-02T15:44:27.537Z,23.65
2022-11-02T15:47:32.313Z,20.85
2022-11-02T15:50:18.746Z,19.05
2022-11-02T15:53:22.422Z,18.77
2022-11-02T15:56:08.405Z,24.60
2022-11-02T15:58:38.960Z,18.80
2022-11-02T16:01:23.540Z,16.20
2022-11-02T16:04:03.734Z,17.02
2022-11-02T16:06:41.777Z,21.60
2022-11-02T16:09:38.436Z,21.45
2022-11-02T16:12:21.843Z,24.65
2022-11-02T16:15:05.859Z,21.33
2022-11-02T16:17:33.329Z,26.30
2022-11-02T16:20:12.257Z,19.63
2022-11-02T16:22:41.246Z,30.25
2022-11-02T16:25:16.260Z,23.13
2022-11-02T16:27:43.882Z,22.23
2022-11-02T16:30:23.203Z,17.20
2022-11-02T16:33:01.374Z,29.88
2022-11-02T16:35:29.170Z,20.52
2022-11-02T16:37:56.978Z,20.25
2022-11-02T16:40:24.899Z,22.75
2022-11-02T16:42:53.605Z,18.30
2022-11-02T16:45:43.182Z,26.02
2022-11-02T16:48:25.222Z,32.97
2022-11-02T16:51:07.203Z,21.38
2022-11-02T16:53:39.152Z,23.63
2022-11-02T16:56:18.047Z,24.20
2022-11-02T16:58:47.946Z,25.63
2022-11-02T17:01:22.168Z,24.57
2022-11-02T17:03:50.602Z,18.63
2022-11-02T17:06:19.240Z,20.67
2022-11-02T17:08:55.663Z,27.00
2022-11-02T17:11:23.519Z,20.75
2022-11-02T17:14:00.214Z,20.60
2022-11-02T17:16:33.576Z,16.90
2022-11-02T17:19:04.240Z,17.90
2022-11-02T17:21:32.318Z,24.50
2022-11-02T17:24:00.304Z,22.02
2022-11-02T17:26:31.628Z,22.23
2022-11-02T17:29:01.497Z,25.20
2022-11-02T17:31:41.275Z,25.10
2022-11-02T17:34:14.457Z,25.42
2022-11-02T17:36:52.148Z,24.90
2022-11-02T17:39:20.721Z,26.63
2022-11-02T17:42:15.332Z,23.13
2022-11-02T17:44:45.384Z,18.40
2022-11-02T17:47:15.754Z,21.00
2022-11-02T17:49:43.417Z,24.38
2022-11-02T17:52:14.472Z,15.35
2022-11-02T17:54:42.154Z,32.08
2022-11-02T17:57:13.263Z,32.28
2022-11-02T17:59:40.880Z,31.95
2022-11-02T18:02:13.804Z,23.08
2022-11-02T18:04:41.466Z,22.13
2022-11-02T18:07:09.398Z,22.65
2022-11-02T18:09:36.938Z,24.88
2022-11-02T18:12:04.719Z,22.52
2022-11-02T18:14:32.374Z,18.70
2022-11-02T18:16:59.941Z,17.73
2022-11-02T18:19:28.281Z,18.00
2022-11-02T18:21:55.833Z,22.25
2022-11-02T18:24:23.408Z,26.30
2022-11-02T18:26:51.057Z,19.08
2022-11-02T18:29:18.876Z,29.30
2022-11-02T18:31:46.860Z,22.05
2022-11-02T18:34:14.656Z,20.60
2022-11-02T18:36:43.262Z,24.17
2022-11-02T18:39:10.855Z,16.83
2022-11-02T18:41:40.468Z,23.42
2022-11-02T18:44:15.633Z,19.05
2022-11-02T18:46:55.175Z,23.52
2022-11-02T18:49:49.302Z,26.55
2022-11-02T18:52:21.515Z,20.02
2022-11-02T18:54:52.959Z,23.05
2022-11-02T18:57:38.887Z,18.65
2022-11-02T19:00:22.631Z,23.98
2022-11-02T19:06:23.820Z,27.27
2022-11-02T19:09:10.888Z,20.20
2022-11-02T19:12:23.848Z,26.42
2022-11-02T19:15:20.653Z,23.60
2022-11-02T19:17:59.999Z,25.05
2022-11-02T19:20:27.736Z,20.02
2022-11-02T19:22:58.778Z,20.75
2022-11-02T19:25:51.520Z,25.00
2022-11-02T19:28:19.436Z,27.20
2022-11-02T19:31:35.540Z,24.98
2022-11-02T19:34:07.474Z,22.98
2022-11-02T19:36:59.774Z,23.60
2022-11-02T19:43:27.830Z,29.33
2022-11-02T19:46:37.589Z,19.67
2022-11-02T19:49:11.592Z,26.77
2022-11-02T19:51:39.651Z,26.77
2022-11-02T19:54:07.480Z,22.52
2022-11-02T19:56:36.492Z,27.42
2022-11-02T19:59:05.734Z,25.73
2022-11-02T20:01:39.052Z,26.92
2022-11-02T20:04:07.080Z,28.40
2022-11-02T20:06:35.764Z,25.25
2022-11-02T20:09:05.044Z,25.40
2022-11-02T20:11:33.049Z,33.50
2022-11-02T20:14:02.549Z,31.55
2022-11-02T20:16:30.455Z,21.92
2022-11-02T20:18:59.054Z,27.85
2022-11-02T20:21:34.401Z,34.55
2022-11-02T20:24:06.507Z,24.40
2022-11-02T20:26:36.649Z,28.02
2022-11-02T20:29:06.237Z,22.55
2022-11-02T20:31:39.241Z,28.15
2022-11-02T20:34:08.396Z,27.13
2022-11-02T20:36:36.348Z,31.83
2022-11-02T20:39:05.509Z,34.30
2022-11-02T20:41:33.229Z,20.85
2022-11-02T20:44:00.813Z,14.07
2022-11-02T20:46:40.112Z,23.85
2022-11-02T20:51:58.083Z,22.25
2022-11-02T20:54:29.526Z,25.33
2022-11-02T20:56:57.858Z,25.60
2022-11-02T20:59:25.984Z,22.30
2022-11-02T21:01:53.831Z,29.33
2022-11-02T21:04:21.953Z,20.83
2022-11-02T21:06:50.140Z,27.73
2022-11-02T21:09:18.626Z,35.25
2022-11-02T21:12:05.205Z,22.05
2022-11-02T21:14:32.939Z,31.42
2022-11-02T21:17:02.730Z,23.92
2022-11-02T21:19:30.409Z,26.58
2022-11-02T21:21:59.959Z,35.15
2022-11-02T21:24:51.320Z,25.75
2022-11-02T21:27:26.572Z,29.35
2022-11-02T21:29:55.266Z,27.23
2022-11-02T21:33:14.125Z,29.80
2022-11-02T21:35:50.835Z,34.90
2022-11-02T21:38:21.929Z,19.40
2022-11-02T21:41:00.541Z,26.77
2022-11-02T21:44:14.102Z,32.50
2022-11-02T21:47:58.089Z,26.50
2022-11-02T21:50:32.423Z,25.23
2022-11-02T21:53:09.343Z,26.50
2022-11-02T21:56:11.851Z,27.63
2022-11-02T21:58:44.699Z,25.73
2022-11-02T22:01:48.641Z,23.58
2022-11-02T22:05:49.049Z,21.60
2022-11-02T22:08:38.580Z,25.30
2022-11-02T22:11:44.672Z,32.65
2022-11-02T22:14:42.550Z,29.10
2022-11-02T22:17:16.884Z,20.25
2022-11-02T22:24:21.002Z,22.80
2022-11-02T22:26:50.778Z,27.65
2022-11-02T22:29:50.975Z,21.93
2022-11-02T22:33:15.842Z,23.50
2022-11-02T22:35:50.044Z,22.23
2022-11-02T22:39:05.851Z,31.92
2022-11-02T22:41:55.496Z,39.47
2022-11-02T22:48:26.093Z,24.95
2022-11-02T22:55:07.084Z,18.60
2022-11-02T22:57:59.910Z,21.27
2022-11-02T23:20:39.029Z,17.17
2022-11-02T23:22:41.362Z,21.60
2022-11-02T23:26:32.367Z,28.88
2022-11-02T23:38:59.081Z,30.60
2022-11-02T23:41:41.607Z,24.83
2022-11-02T23:44:14.891Z,29.20
2022-11-02T23:46:46.053Z,18.80
2022-11-02T23:49:15.491Z,16.35
2022-11-02T23:52:01.557Z,12.75
2022-11-02T23:54:47.563Z,16.35
2022-11-02T23:57:15.221Z,18.85
2022-11-02T23:59:42.812Z,12.82
